This is the latest recevied weather packets stored in our database for station/object KE8AFF-13. If no packets are shown the sender has not sent any weather packets the latest 10 day(s).
| Time | Temp. | Humidity | Pressure | Rain* | Wind** | Luminosity | Snow |
|---|---|---|---|---|---|---|---|
| 1778174727 | 12.22° C | 54% | 1013.6 hPa | 0 mm | - | 805 W/m² | - |
| 1778174424 | 11.67° C | 56% | 1013.8 hPa | 0 mm | - | 822 W/m² | - |
| 1778174119 | 11.67° C | 57% | 1013.9 hPa | 0 mm | - | 832 W/m² | - |
| 1778173817 | 11.67° C | 57% | 1014 hPa | 0 mm | - | 920 W/m² | - |
| 1778173513 | 11.67° C | 56% | 1014 hPa | 0 mm | - | 836 W/m² | - |
| 1778173210 | 12.22° C | 55% | 1014 hPa | 0 mm | - | 809 W/m² | - |
| 1778172906 | 12.22° C | 57% | 1013.9 hPa | 0 mm | - | 241 W/m² | - |
| 1778172603 | 11.67° C | 57% | 1014.2 hPa | 0 mm | - | 243 W/m² | - |
| 1778172299 | 11.11° C | 58% | 1014.3 hPa | 0 mm | - | 808 W/m² | - |
| 1778171996 | 11.11° C | 57% | 1014.1 hPa | 0 mm | - | 845 W/m² | - |
| 1778171693 | 11.11° C | 57% | 1014.4 hPa | 0 mm | - | 818 W/m² | - |
| 1778171391 | 11.67° C | 58% | 1014.2 hPa | 0 mm | - | 756 W/m² | - |
| 1778171086 | 11.11° C | 60% | 1014.4 hPa | 0 mm | - | 774 W/m² | - |
| 1778170783 | 11.11° C | 59% | 1014.1 hPa | 0 mm | - | 796 W/m² | - |
| 1778170479 | 10.56° C | 58% | 1014.2 hPa | 0 mm | - | 741 W/m² | - |
| 1778170176 | 11.11° C | 57% | 1014.1 hPa | 0 mm | - | 750 W/m² | - |
| 1778169872 | 11.11° C | 56% | 1014.2 hPa | 0 mm | - | 753 W/m² | - |
| 1778169567 | 11.11° C | 57% | 1014.1 hPa | 0 mm | - | 746 W/m² | - |
| 1778169264 | 10.56° C | 55% | 1014.2 hPa | 0 mm | - | 749 W/m² | - |
| 1778168961 | 11.11° C | 53% | 1014 hPa | 0 mm | - | 725 W/m² | - |
| 1778168658 | 11.11° C | 53% | 1014.1 hPa | 0 mm | - | 701 W/m² | - |
| 1778168355 | 10.56° C | 52% | 1014 hPa | 0 mm | - | 723 W/m² | - |
| 1778168051 | 10.56° C | 56% | 1014 hPa | 0 mm | - | 751 W/m² | - |
| 1778167748 | 10.56° C | 55% | 1014.1 hPa | 0 mm | - | 767 W/m² | - |
| 1778167439 | 10.56° C | 54% | 1013.9 hPa | 0 mm | - | 761 W/m² | - |
* Rain latest hour (hover to see other rain measurements)
** Current wind speed in m/s (hover to see current wind gust speed)